Hlavní strana
METAR-TAF:

METAR-TAF

Letiště :

Rabat, Maroko

zeměpisná šířka: 34-03N, zeměpisná délka: 006-46W, výška: 84 m

Aktuální stav počasí

Zpráva byla vytvořena před 18 minutami, v 13:00 UTC
Severní vítr 5 kt, proměnlivý mezi západoseverozápadním a severovýchodním
Teplota 18°C
Vlhkost vzduchu 68%
Tlak 1014 hPa
Viditelnost: 6000 m
Polojasno ve výšce 2000 ft
Polojasno ve výšce 10000 ft

METAR: GMME 011300Z 36005KT 300V040 6000 SCT020 SCT100 18/12 Q1014 NOSIG

Čas: 14:18 (13:18 UTC)

Předpověď počasí

Zpráva byla vytvořena před 2 hodinami a 18 minutami, v 11:00 UTC
Předpověď platná od 01 v 12 UTC do 02 v 18 UTC
Severoseverozápadní vítr 8 kt
Viditelnost: 8000 m
Polojasno ve výšce 2000 ft
Dočasný
od 01 v 16 UTC do 02 v 04 UTC
Jihovýchodní vítr 12 kt
Viditelnost: 2000 m
Polojasno ve výšce 1300 ft
Polojasno ve výšce 2300 ft, Vertikální cumulus.
Oblačno až skoro zataženo ve výšce 6600 ft
dešťové přeháňky

TAF: GMME 011100Z 0112/0218 34008KT 8000 SCT020 TEMPO 0116/0204 14012KT 2000 SHRA SCT013 SCT023TCU BKN066

Stav a předpovědi počasí z více než 4 000 letišť (zprávy METAR a TAF).

Červené a žluté tečky na mapě představují dostupné meteorologické stanice.

Když kurzor umístíte na tečku, zobrazí se název stanice.

Pak kliknutím zobrazíte stav a předpověď počasí.

Chcete-li změnit mapu, kliknutím na zelené tlačítko se znaménkem +mapu přiblížíte, kliknutím na zelené tlačítko se znaménkem – mapu oddálíte a kliknutím na zelené šipky přejdete na sousední mapy.


METAR-TAF: